^^
WesterhopeWX Station Historical Data
 
Daily Summary for February 18, 2019 Units:  Metric    English   Both
Daily Weekly Monthly Yearly Custom
  Current: High: Low: Average:
Temperature: 6.7 °C 7.2 °C 6.4 °C 6.9 °C
Dew Point: 3.3 °C 3.8 °C 2.9 °C 3.4 °C
Humidity: 79% 80% 75% 79%
Wind Speed: 6.4km/h 16.3km/h 0.0km/h 4.7km/h
Wind Gust: 16.1km/h 22.5km/h - -
WindSouth - - SSW
Pressure: 1004.6 hPa 1006.0 hPa 1004.6 hPa -
Precipitation: 0.0 mm      
Historical Graphs
 
 
Tabular Data for February 18, 2019
Time Temperature Dew Point Pressure Wind Wind Speed Wind Gust Humidity Rainfall Rate (Hourly) solar
00:04 7.1 °C 3.0 °C 1006.0 hPa SSE 9.7 km/h 9.7 km/h 75% 0.0 mm 0.00 W/m2
00:09 7.1 °C 3.0 °C 1006.0 hPa South 7.9 km/h 12.9 km/h 75% 0.0 mm 0.00 W/m2
00:14 7.1 °C 3.2 °C 1006.0 hPa SSW 3.2 km/h 8.0 km/h 76% 0.0 mm 0.00 W/m2
00:19 7.1 °C 3.2 °C 1006.0 hPa SW 3.2 km/h 11.3 km/h 76% 0.0 mm 0.00 W/m2
00:24 7.1 °C 3.2 °C 1006.0 hPa Calm   6.4 km/h 76% 0.0 mm 0.00 W/m2
00:29 7.0 °C 3.1 °C 1006.0 hPa South 6.4 km/h 9.7 km/h 76% 0.0 mm 0.00 W/m2
00:34 7.0 °C 3.1 °C 1006.0 hPa South 1.4 km/h 4.8 km/h 76% 0.0 mm 0.00 W/m2
00:39 6.9 °C 3.1 °C 1006.0 hPa SSW 1.4 km/h 11.3 km/h 77% 0.0 mm 0.00 W/m2
00:44 6.9 °C 3.1 °C 1006.0 hPa SSE 1.4 km/h 4.8 km/h 77% 0.0 mm 0.00 W/m2
00:49 6.8 °C 3.1 °C 1006.0 hPa SSE 6.4 km/h 11.3 km/h 77% 0.0 mm 0.00 W/m2
00:54 6.8 °C 3.1 °C 1006.0 hPa Calm   3.2 km/h 77% 0.0 mm 0.00 W/m2
00:59 6.7 °C 3.1 °C 1006.0 hPa SSE 1.4 km/h 8.0 km/h 78% 0.0 mm 0.00 W/m2
01:04 6.6 °C 3.0 °C 1006.0 hPa SSW 1.4 km/h 8.0 km/h 78% 0.0 mm 0.00 W/m2
01:09 6.5 °C 2.9 °C 1006.0 hPa SSE 3.2 km/h 6.4 km/h 78% 0.0 mm 0.00 W/m2
01:14 6.4 °C 3.0 °C 1006.0 hPa SSW 1.4 km/h 6.4 km/h 79% 0.0 mm 0.00 W/m2
01:19 6.4 °C 3.0 °C 1006.0 hPa South 3.2 km/h 3.2 km/h 79% 0.0 mm 0.00 W/m2
01:24 6.4 °C 3.0 °C 1006.0 hPa Calm   6.4 km/h 79% 0.0 mm 0.00 W/m2
01:29 6.4 °C 3.0 °C 1005.6 hPa SW 3.2 km/h 8.0 km/h 79% 0.0 mm 0.00 W/m2
01:34 6.6 °C 3.4 °C 1005.6 hPa SSW 4.7 km/h 4.8 km/h 80% 0.0 mm 0.00 W/m2
01:39 6.6 °C 3.4 °C 1005.6 hPa SSE 1.4 km/h 11.3 km/h 80% 0.0 mm 0.00 W/m2
01:44 6.6 °C 3.4 °C 1005.6 hPa SSW 3.2 km/h 12.9 km/h 80% 0.0 mm 0.00 W/m2
01:49 6.7 °C 3.5 °C 1005.6 hPa South 1.4 km/h 11.3 km/h 80% 0.0 mm 0.00 W/m2
01:54 6.8 °C 3.6 °C 1005.6 hPa SSE 7.9 km/h 16.1 km/h 80% 0.0 mm 0.00 W/m2
01:59 6.9 °C 3.5 °C 1005.6 hPa SE 3.2 km/h 6.4 km/h 79% 0.0 mm 0.00 W/m2
02:04 6.9 °C 3.5 °C 1005.3 hPa South 6.4 km/h 12.9 km/h 79% 0.0 mm 0.00 W/m2
02:09 6.9 °C 3.5 °C 1005.6 hPa SSW 6.4 km/h 8.0 km/h 79% 0.0 mm 0.00 W/m2
02:14 6.9 °C 3.5 °C 1005.6 hPa SSW 4.7 km/h 8.0 km/h 79% 0.0 mm 0.00 W/m2
02:19 6.9 °C 3.5 °C 1005.6 hPa SW 6.4 km/h 6.4 km/h 79% 0.0 mm 0.00 W/m2
02:24 6.9 °C 3.5 °C 1005.6 hPa SW 3.2 km/h 9.7 km/h 79% 0.0 mm 0.00 W/m2
02:29 6.9 °C 3.5 °C 1005.3 hPa SW 1.4 km/h 9.7 km/h 79% 0.0 mm 0.00 W/m2
02:34 6.9 °C 3.5 °C 1005.6 hPa SSW 4.7 km/h 8.0 km/h 79% 0.0 mm 0.00 W/m2
02:39 6.9 °C 3.5 °C 1005.6 hPa SW 4.7 km/h 11.3 km/h 79% 0.0 mm 0.00 W/m2
02:44 7.0 °C 3.6 °C 1005.6 hPa South 3.2 km/h 19.3 km/h 79% 0.0 mm 0.00 W/m2
02:49 7.1 °C 3.7 °C 1005.6 hPa SW 7.9 km/h 14.5 km/h 79% 0.0 mm 0.00 W/m2
02:54 7.2 °C 3.8 °C 1005.6 hPa SW 4.7 km/h 14.5 km/h 79% 0.0 mm 0.00 W/m2
02:59 7.1 °C 3.7 °C 1005.6 hPa SW 4.7 km/h 14.5 km/h 79% 0.0 mm 0.00 W/m2
03:04 7.1 °C 3.7 °C 1005.3 hPa SSW 6.4 km/h 12.9 km/h 79% 0.0 mm 0.00 W/m2
03:09 7.0 °C 3.6 °C 1005.3 hPa SW 6.4 km/h 14.5 km/h 79% 0.0 mm 0.00 W/m2
03:14 7.0 °C 3.6 °C 1005.3 hPa SSW 4.7 km/h 11.3 km/h 79% 0.0 mm 0.00 W/m2
03:19 7.0 °C 3.6 °C 1005.3 hPa SSW 6.4 km/h 11.3 km/h 79% 0.0 mm 0.00 W/m2
03:24 7.0 °C 3.6 °C 1005.3 hPa SW 6.4 km/h 6.4 km/h 79% 0.0 mm 0.00 W/m2
03:29 7.0 °C 3.6 °C 1005.3 hPa South 6.4 km/h 6.4 km/h 79% 0.0 mm 0.00 W/m2
03:34 6.9 °C 3.5 °C 1005.0 hPa SSE 6.4 km/h 8.0 km/h 79% 0.0 mm 0.00 W/m2
03:39 7.0 °C 3.6 °C 1005.3 hPa WSW 3.2 km/h 14.5 km/h 79% 0.0 mm 0.00 W/m2
03:44 7.0 °C 3.6 °C 1005.3 hPa Calm   17.7 km/h 79% 0.0 mm 0.00 W/m2
03:49 7.1 °C 3.7 °C 1005.3 hPa Calm   6.4 km/h 79% 0.0 mm 0.00 W/m2
03:54 7.1 °C 3.7 °C 1005.3 hPa SW 4.7 km/h 9.7 km/h 79% 0.0 mm 0.00 W/m2
03:59 6.9 °C 3.5 °C 1005.3 hPa SSW 6.4 km/h 6.4 km/h 79% 0.0 mm 0.00 W/m2
04:04 6.9 °C 3.5 °C 1005.3 hPa WSW 1.4 km/h 6.4 km/h 79% 0.0 mm 0.00 W/m2
04:09 6.9 °C 3.5 °C 1005.3 hPa SSW 6.4 km/h 8.0 km/h 79% 0.0 mm 0.00 W/m2
04:14 6.9 °C 3.5 °C 1005.3 hPa SSW 1.4 km/h 8.0 km/h 79% 0.0 mm 0.00 W/m2
04:19 6.9 °C 3.5 °C 1005.3 hPa SW 9.7 km/h 9.7 km/h 79% 0.0 mm 0.00 W/m2
04:24 6.8 °C 3.4 °C 1005.3 hPa South 3.2 km/h 4.8 km/h 79% 0.0 mm 0.00 W/m2
04:29 6.8 °C 3.4 °C 1005.3 hPa South 3.2 km/h 3.2 km/h 79% 0.0 mm 0.00 W/m2
04:34 6.8 °C 3.6 °C 1005.3 hPa SSW 7.9 km/h 11.3 km/h 80% 0.0 mm 0.00 W/m2
04:39 6.8 °C 3.6 °C 1005.3 hPa SW 3.2 km/h 9.7 km/h 80% 0.0 mm 0.00 W/m2
04:44 6.9 °C 3.5 °C 1005.3 hPa SW 1.4 km/h 6.4 km/h 79% 0.0 mm 0.00 W/m2
04:49 6.9 °C 3.5 °C 1005.3 hPa SSW 4.7 km/h 8.0 km/h 79% 0.0 mm 0.00 W/m2
04:54 7.0 °C 3.6 °C 1005.3 hPa SSW 6.4 km/h 8.0 km/h 79% 0.0 mm 0.00 W/m2
04:59 7.1 °C 3.7 °C 1005.0 hPa SSW 7.9 km/h 11.3 km/h 79% 0.0 mm 0.00 W/m2
05:04 7.2 °C 3.6 °C 1005.3 hPa South 3.2 km/h 9.7 km/h 78% 0.0 mm 0.00 W/m2
05:09 7.2 °C 3.6 °C 1005.0 hPa SSW 11.1 km/h 14.5 km/h 78% 0.0 mm 0.00 W/m2
05:14 7.2 °C 3.6 °C 1005.0 hPa SW 3.2 km/h 8.0 km/h 78% 0.0 mm 0.00 W/m2
05:19 7.2 °C 3.6 °C 1005.0 hPa SSW 7.9 km/h 14.5 km/h 78% 0.0 mm 0.00 W/m2
05:24 7.2 °C 3.4 °C 1005.0 hPa SE 4.7 km/h 14.5 km/h 77% 0.0 mm 0.00 W/m2
05:29 7.2 °C 3.6 °C 1005.0 hPa SW 4.7 km/h 9.7 km/h 78% 0.0 mm 0.00 W/m2
05:34 7.2 °C 3.6 °C 1005.0 hPa SSE 6.4 km/h 11.3 km/h 78% 0.0 mm 0.00 W/m2
05:39 7.2 °C 3.6 °C 1005.0 hPa SW 3.2 km/h 17.7 km/h 78% 0.0 mm 0.00 W/m2
05:44 7.1 °C 3.5 °C 1005.0 hPa SSE 16.3 km/h 16.1 km/h 78% 0.0 mm 0.00 W/m2
05:49 7.0 °C 3.4 °C 1004.6 hPa SW 7.9 km/h 17.7 km/h 78% 0.0 mm 0.00 W/m2
05:54 7.0 °C 3.4 °C 1004.6 hPa SSE 9.7 km/h 14.5 km/h 78% 0.0 mm 0.00 W/m2
05:59 6.9 °C 3.3 °C 1004.6 hPa SSW 4.7 km/h 16.1 km/h 78% 0.0 mm 0.00 W/m2
06:04 6.8 °C 3.2 °C 1004.6 hPa South 6.4 km/h 16.1 km/h 78% 0.0 mm 0.00 W/m2
06:09 6.7 °C 3.3 °C 1004.6 hPa SSW 6.4 km/h 11.3 km/h 79% 0.0 mm 0.00 W/m2
06:14 6.6 °C 3.2 °C 1004.6 hPa SSE 3.2 km/h 11.3 km/h 79% 0.0 mm 0.00 W/m2
06:19 6.6 °C 3.2 °C 1004.6 hPa South 7.9 km/h 12.9 km/h 79% 0.0 mm 0.00 W/m2
06:24 6.6 °C 3.2 °C 1004.6 hPa SSW 6.4 km/h 16.1 km/h 79% 0.0 mm 0.00 W/m2
06:29 6.7 °C 3.3 °C 1004.6 hPa SSE 4.7 km/h 22.5 km/h 79% 0.0 mm 0.00 W/m2
06:34 6.7 °C 3.3 °C 1004.6 hPa South 6.4 km/h 16.1 km/h 79% 0.0 mm 0.00 W/m2
Westerhope, Newcastle upon Tyne, UK
Compliments of Weather Underground - 4 mb